सभी
Pierrefonds Airport (Saint) ZSE मौसम
|
Saint (ZSE / FMEP)
स्वच्छ आकाश
हल्की हवाएं |
|
25 °C |
ZSE Terminal Area Forecast
| Date | Time (+04) | Flight Rules | Wind Dir. | Speed | Type | Height AGL (ft) | Visibility | Remarks | ||||||
|---|---|---|---|---|---|---|---|---|---|---|---|---|---|---|
| 04-मई | 15:00 | VFR | 140° | 10 kt | Few | 5,000 | >= 6 miles | |||||||
| 04-मई | 14:00 | VFR | 140° | 10 kt | Few | 5,000 | >= 6 miles | |||||||
| 04-मई | 13:00 | VFR | 140° | 10 kt | Few | 5,000 | >= 6 miles | |||||||
| 04-मई | 12:00 | VFR | 140° | 10 kt | Few | 5,000 | >= 6 miles | |||||||
| 04-मई | 11:00 | VFR | 140° | 10 kt | Few | 5,000 | >= 6 miles | |||||||
| 04-मई | 10:00 | VFR | 140° | 10 kt | Few | 5,000 | >= 6 miles | |||||||
| 04-मई | 09:00 | VFR | 140° | 10 kt | Few | 5,000 | >= 6 miles | |||||||
| 04-मई | 08:00 | VFR | 140° | 10 kt | Few | 5,000 | >= 6 miles | Becoming. | ||||||
Recent ZSE METAR history
| Date | Time (+04) | Flight Rules | Wind Dir. | Speed | Type | Height AGL (ft) | Visibility | Temp (°C) | Temp (°F) | Dew Point (°C) | Dew Point (°F) | Rel. Humid. | Pressure | Density Altitude | Remarks |
|---|---|---|---|---|---|---|---|---|---|---|---|---|---|---|---|
| 04-मई | 08:00 | VFR | 70° | 6 kt | 10000 meters | 25° | 77° | 14° | 57° | 50% | 1016 mb | 1,177 ft | |||
| 04-मई | 07:30 | VFR | 50° | 8 kt | 10000 meters | 23° | 73° | 13° | 55° | 53% | 1016 mb | 937 ft | |||
| 04-मई | 07:00 | VFR | 50° | 7 kt | 10000 meters | 22° | 71° | 14° | 57° | 60% | 1016 mb | 817 ft | |||
| 04-मई | 06:30 | VFR | 50° | 8 kt | 10000 meters | 22° | 71° | 14° | 57° | 60% | 1016 mb | 817 ft | |||
| 04-मई | 06:00 | VFR | 50° | 9 kt | 10000 meters | 22° | 71° | 14° | 57° | 60% | 1016 mb | 817 ft | |||
| 04-मई | 05:30 | VFR | 60° | 8 kt | 10000 meters | 21° | 69° | 14° | 57° | 64% | 1015 mb | 726 ft | |||
| 04-मई | 05:00 | VFR | 50° | 8 kt | 10000 meters | 22° | 71° | 14° | 57° | 60% | 1015 mb | 846 ft | |||
| 04-मई | 04:30 | VFR | 50° | 8 kt | 10000 meters | 22° | 71° | 15° | 59° | 65% | 1016 mb | 817 ft | |||
| 04-मई | 04:00 | VFR | 50° | 9 kt | 10000 meters | 21° | 69° | 15° | 59° | 69% | 1016 mb | 697 ft | |||
| 04-मई | 03:30 | VFR | 50° | 7 kt | 10000 meters | 22° | 71° | 15° | 59° | 65% | 1016 mb | 817 ft | |||
| 04-मई | 03:00 | VFR | 50° | 6 kt | 10000 meters | 22° | 71° | 15° | 59° | 65% | 1016 mb | 817 ft | |||
| 04-मई | 02:30 | VFR | 50° | 6 kt | 10000 meters | 22° | 71° | 15° | 59° | 65% | 1016 mb | 817 ft | |||
| 04-मई | 02:00 | VFR | 50° | 6 kt | 10000 meters | 22° | 71° | 16° | 60° | 69% | 1016 mb | 817 ft | |||
| 04-मई | 01:30 | VFR | 50° | 5 kt | 10000 meters | 22° | 71° | 16° | 60° | 69% | 1017 mb | 787 ft | |||
| 04-मई | 01:00 | VFR | 60° | 6 kt | 10000 meters | 22° | 71° | 16° | 60° | 69% | 1017 mb | 787 ft | |||
| 04-मई | 00:30 | VFR | 60° | 5 kt | 10000 meters | 22° | 71° | 16° | 60° | 69% | 1017 mb | 787 ft | |||
| 04-मई | 00:00 | VFR | 60° | 4 kt | 10000 meters | 22° | 71° | 16° | 60° | 69% | 1017 mb | 787 ft | |||
| 03-मई | 23:30 | VFR | 60° | 5 kt | 10000 meters | 23° | 73° | 16° | 60° | 65% | 1017 mb | 907 ft | |||
| 03-मई | 23:00 | VFR | 50° | 6 kt | 10000 meters | 23° | 73° | 16° | 60° | 65% | 1017 mb | 907 ft | |||
| 03-मई | 22:30 | VFR | 70° | 6 kt | 10000 meters | 23° | 73° | 16° | 60° | 65% | 1017 mb | 907 ft | |||
| 03-मई | 22:00 | VFR | 60° | 6 kt | 10000 meters | 23° | 73° | 17° | 62° | 69% | 1017 mb | 907 ft | |||
| 03-मई | 21:30 | VFR | 90° | 5 kt | 10000 meters | 23° | 73° | 18° | 64° | 73% | 1017 mb | 907 ft | |||
| 03-मई | 21:00 | VFR | 90° | 4 kt | 10000 meters | 23° | 73° | 18° | 64° | 73% | 1017 mb | 907 ft | |||
| 03-मई | 20:30 | VFR | 80° | 4 kt | 10000 meters | 24° | 75° | 18° | 64° | 69% | 1017 mb | 1,027 ft |
लॉगिन
| Your browser is unsupported. अपना ब्राऊजर अपग्रेड करें |
